createdAt,value
2022-11-06T00:01:59.714Z,5.43
2022-11-06T00:04:45.382Z,5.38
2022-11-06T00:07:30.650Z,5.25
2022-11-06T00:10:17.459Z,4.70
2022-11-06T00:13:02.845Z,5.55
2022-11-06T00:15:48.429Z,6.03
2022-11-06T00:18:35.799Z,6.25
2022-11-06T00:21:26.301Z,5.38
2022-11-06T00:24:13.648Z,5.10
2022-11-06T00:26:58.822Z,6.07
2022-11-06T00:29:44.435Z,5.53
2022-11-06T00:32:29.759Z,4.85
2022-11-06T00:35:15.737Z,5.13
2022-11-06T00:38:02.320Z,6.18
2022-11-06T00:40:48.915Z,5.40
2022-11-06T00:43:35.922Z,5.60
2022-11-06T00:46:21.734Z,4.88
2022-11-06T00:49:13.307Z,5.57
2022-11-06T00:51:58.878Z,4.78
2022-11-06T00:54:44.450Z,4.97
2022-11-06T00:57:29.900Z,5.18
2022-11-06T01:00:18.025Z,5.13
2022-11-06T01:03:03.585Z,5.65
2022-11-06T01:05:48.812Z,5.55
2022-11-06T01:08:34.628Z,5.63
2022-11-06T01:11:23.484Z,5.50
2022-11-06T01:14:11.673Z,5.00
2022-11-06T01:16:57.396Z,5.00
2022-11-06T01:19:42.611Z,4.78
2022-11-06T01:22:28.197Z,5.20
2022-11-06T01:25:13.598Z,5.07
2022-11-06T01:27:59.070Z,5.07
2022-11-06T01:30:44.862Z,5.03
2022-11-06T01:33:34.195Z,4.97
2022-11-06T01:36:21.514Z,5.72
2022-11-06T01:39:08.917Z,5.38
2022-11-06T01:41:54.794Z,4.90
2022-11-06T01:44:43.270Z,5.00
2022-11-06T01:47:29.690Z,4.28
2022-11-06T01:50:22.853Z,4.70
2022-11-06T01:53:08.531Z,5.68
2022-11-06T01:55:58.333Z,4.95
2022-11-06T01:58:46.757Z,4.20
2022-11-06T02:01:32.538Z,4.90
2022-11-06T02:04:28.410Z,4.90
2022-11-06T02:07:15.011Z,5.55
2022-11-06T02:10:00.486Z,5.70
2022-11-06T02:13:23.177Z,4.95
2022-11-06T02:16:24.772Z,5.18
2022-11-06T02:19:26.882Z,4.38
2022-11-06T02:22:27.250Z,5.57
2022-11-06T02:25:37.261Z,4.30
2022-11-06T02:28:33.894Z,5.47
2022-11-06T02:31:25.315Z,6.10
2022-11-06T02:34:14.444Z,6.35
2022-11-06T02:37:08.140Z,5.80
2022-11-06T02:39:57.614Z,4.68
2022-11-06T02:42:47.110Z,5.55
2022-11-06T02:45:39.050Z,5.50
2022-11-06T02:48:31.851Z,5.05
2022-11-06T02:51:21.682Z,5.05
2022-11-06T02:54:13.265Z,5.35
2022-11-06T02:57:11.819Z,4.93
2022-11-06T03:00:05.898Z,6.47
2022-11-06T03:03:12.381Z,6.15
2022-11-06T03:06:04.077Z,5.80
2022-11-06T03:08:56.641Z,7.35
2022-11-06T03:11:42.444Z,6.03
2022-11-06T03:14:48.601Z,5.20
2022-11-06T03:17:41.018Z,5.93
2022-11-06T03:20:58.479Z,5.88
2022-11-06T03:23:58.141Z,5.95
2022-11-06T03:26:50.809Z,5.68
2022-11-06T03:30:07.249Z,5.82
2022-11-06T03:32:58.198Z,6.22
2022-11-06T03:36:05.208Z,5.82
2022-11-06T03:38:54.619Z,6.43
2022-11-06T03:41:48.157Z,5.47
2022-11-06T03:44:38.788Z,5.75
2022-11-06T03:47:37.374Z,6.65
2022-11-06T03:50:52.060Z,6.80
2022-11-06T03:53:47.115Z,6.80
2022-11-06T03:56:46.231Z,6.68
2022-11-06T03:59:43.325Z,6.43
2022-11-06T04:02:32.432Z,5.93
2022-11-06T04:05:25.121Z,5.45
2022-11-06T04:08:31.125Z,5.72
2022-11-06T04:11:39.450Z,5.40
2022-11-06T04:14:31.289Z,5.43
2022-11-06T04:17:17.641Z,5.03
2022-11-06T04:20:07.495Z,5.72
2022-11-06T04:23:03.313Z,5.63
2022-11-06T04:26:36.405Z,5.38
2022-11-06T04:29:43.328Z,5.60
2022-11-06T04:32:43.007Z,5.90
2022-11-06T04:35:43.069Z,5.65
2022-11-06T04:38:46.575Z,5.53
2022-11-06T04:41:55.218Z,5.35
2022-11-06T04:44:50.565Z,6.20
2022-11-06T04:47:38.889Z,6.05
2022-11-06T04:50:26.480Z,5.82
2022-11-06T04:53:12.732Z,6.30
2022-11-06T04:56:09.136Z,5.38
2022-11-06T04:58:54.314Z,5.40
2022-11-06T05:01:41.344Z,5.22
2022-11-06T05:04:26.893Z,5.13
2022-11-06T05:07:13.964Z,4.90
2022-11-06T05:09:59.189Z,5.28
2022-11-06T05:12:44.607Z,5.70
2022-11-06T05:15:30.030Z,6.65
2022-11-06T05:18:21.374Z,5.78
2022-11-06T05:21:25.415Z,6.88
2022-11-06T05:24:13.898Z,6.70
2022-11-06T05:26:59.815Z,5.82
2022-11-06T05:29:45.762Z,5.63
2022-11-06T05:32:33.910Z,6.18
2022-11-06T05:35:20.747Z,6.00
2022-11-06T05:38:09.031Z,6.90
2022-11-06T05:40:56.822Z,6.28
2022-11-06T05:43:44.481Z,6.00
2022-11-06T05:46:47.621Z,5.60
2022-11-06T05:49:33.918Z,6.15
2022-11-06T05:52:19.449Z,6.88
2022-11-06T05:55:10.127Z,5.30
2022-11-06T05:57:59.372Z,5.70
2022-11-06T06:00:44.771Z,5.68
2022-11-06T06:03:36.395Z,5.97
2022-11-06T06:06:22.394Z,5.32
2022-11-06T06:09:08.000Z,5.68
2022-11-06T06:11:54.259Z,5.53
2022-11-06T06:14:39.958Z,5.68
2022-11-06T06:17:26.130Z,5.53
2022-11-06T06:20:15.116Z,6.13
2022-11-06T06:23:01.087Z,5.55
2022-11-06T06:25:46.677Z,5.10
2022-11-06T06:28:32.179Z,4.88
2022-11-06T06:31:17.469Z,5.50
2022-11-06T06:34:03.019Z,4.63
2022-11-06T06:36:54.851Z,5.30
2022-11-06T06:39:39.997Z,4.22
2022-11-06T06:42:31.238Z,5.00
2022-11-06T06:45:17.538Z,4.05
2022-11-06T06:48:04.638Z,4.10
2022-11-06T06:50:50.099Z,4.45
2022-11-06T06:53:36.222Z,4.68
2022-11-06T06:56:21.834Z,4.20
2022-11-06T06:59:07.693Z,4.53
2022-11-06T07:01:53.358Z,4.63
2022-11-06T07:04:38.851Z,4.20
2022-11-06T07:07:24.142Z,3.92
2022-11-06T07:10:09.609Z,4.00
2022-11-06T07:12:55.096Z,3.85
2022-11-06T07:15:40.816Z,3.58
2022-11-06T07:18:26.400Z,3.72
2022-11-06T07:21:13.263Z,3.40
2022-11-06T07:23:58.411Z,3.33
2022-11-06T07:26:43.825Z,3.60
2022-11-06T07:29:29.285Z,3.33
2022-11-06T07:32:14.944Z,3.80
2022-11-06T07:35:00.226Z,3.20
2022-11-06T07:37:46.350Z,3.50
2022-11-06T07:40:33.367Z,3.13
2022-11-06T07:43:21.690Z,3.22
2022-11-06T07:46:09.474Z,3.00
2022-11-06T07:48:55.016Z,3.03
2022-11-06T07:51:40.642Z,3.97
2022-11-06T07:54:26.078Z,3.20
2022-11-06T07:57:11.403Z,3.40
2022-11-06T07:59:57.358Z,2.65
2022-11-06T08:02:43.131Z,2.67
2022-11-06T08:05:28.537Z,2.90
2022-11-06T08:08:16.711Z,3.28
2022-11-06T08:11:07.334Z,3.15
2022-11-06T08:13:52.566Z,3.20
2022-11-06T08:16:37.924Z,2.97
2022-11-06T08:19:23.457Z,2.90
2022-11-06T08:22:10.347Z,2.70
2022-11-06T08:24:55.874Z,2.95
2022-11-06T08:27:41.491Z,2.53
2022-11-06T08:30:28.284Z,3.38
2022-11-06T08:33:13.842Z,2.63
2022-11-06T08:36:03.436Z,3.03
2022-11-06T08:38:49.033Z,2.95
2022-11-06T08:41:34.504Z,2.97
2022-11-06T08:44:19.871Z,3.20
2022-11-06T08:47:05.608Z,3.50
2022-11-06T08:49:50.865Z,3.42
2022-11-06T08:52:36.335Z,3.50
2022-11-06T08:55:21.882Z,3.35
2022-11-06T08:58:07.611Z,3.78
2022-11-06T09:00:52.893Z,3.05
2022-11-06T09:03:38.557Z,3.28
2022-11-06T09:06:25.037Z,3.20
2022-11-06T09:09:10.156Z,3.25
2022-11-06T09:12:07.725Z,3.15
2022-11-06T09:14:54.479Z,3.30
2022-11-06T09:17:47.954Z,3.60
2022-11-06T09:20:33.827Z,3.10
2022-11-06T09:23:22.124Z,3.08
2022-11-06T09:26:11.665Z,4.05
2022-11-06T09:28:57.088Z,2.92
2022-11-06T09:31:43.817Z,3.10
2022-11-06T09:34:28.930Z,2.70
2022-11-06T09:37:14.537Z,2.90
2022-11-06T09:40:05.814Z,2.95
2022-11-06T09:43:13.807Z,2.67
2022-11-06T09:46:08.967Z,2.70
2022-11-06T09:49:08.106Z,2.80
2022-11-06T09:52:06.037Z,2.80
2022-11-06T09:55:06.578Z,2.65
2022-11-06T09:58:03.955Z,2.55
2022-11-06T10:00:52.615Z,3.00
2022-11-06T10:03:47.173Z,2.75
2022-11-06T10:06:33.164Z,2.63
2022-11-06T10:09:19.238Z,2.70
2022-11-06T10:12:05.015Z,2.25
2022-11-06T10:15:50.898Z,2.50
2022-11-06T10:19:26.438Z,2.10
2022-11-06T10:22:16.635Z,2.63
2022-11-06T10:25:22.442Z,2.80
2022-11-06T10:28:13.799Z,2.45
2022-11-06T10:31:15.868Z,2.30
2022-11-06T10:34:08.239Z,2.35
2022-11-06T10:37:00.216Z,3.03
2022-11-06T10:39:49.486Z,2.47
2022-11-06T10:42:40.570Z,2.38
2022-11-06T10:45:28.680Z,2.47
2022-11-06T10:48:30.862Z,2.72
2022-11-06T10:51:26.371Z,2.00
2022-11-06T10:54:25.409Z,2.15
2022-11-06T10:57:40.151Z,2.33
2022-11-06T11:00:25.831Z,2.70
2022-11-06T11:03:34.100Z,2.38
2022-11-06T11:06:19.336Z,1.95
2022-11-06T11:09:30.099Z,2.33
2022-11-06T11:12:22.285Z,2.20
2022-11-06T11:15:15.292Z,2.58
2022-11-06T11:18:11.872Z,2.00
2022-11-06T11:21:18.784Z,2.45
2022-11-06T11:24:03.851Z,3.28
2022-11-06T11:26:53.098Z,2.40
2022-11-06T11:29:50.461Z,2.58
2022-11-06T11:32:35.665Z,3.10
2022-11-06T11:35:27.782Z,3.08
2022-11-06T11:38:19.021Z,3.15
2022-11-06T11:41:11.750Z,3.30
2022-11-06T11:44:12.199Z,3.05
2022-11-06T11:46:57.627Z,2.95
2022-11-06T11:49:46.237Z,3.00
2022-11-06T11:52:31.949Z,3.15
2022-11-06T11:55:23.057Z,2.53
2022-11-06T11:58:20.806Z,2.58
2022-11-06T12:01:08.659Z,2.60
2022-11-06T12:03:54.123Z,3.55
2022-11-06T12:06:50.646Z,2.83
2022-11-06T12:09:43.494Z,2.60
2022-11-06T12:12:39.285Z,3.35
2022-11-06T12:15:35.236Z,3.20
2022-11-06T12:18:33.179Z,2.53
2022-11-06T12:21:32.054Z,2.40
2022-11-06T12:24:22.232Z,2.67
2022-11-06T12:27:31.518Z,2.40
2022-11-06T12:30:19.724Z,2.97
2022-11-06T12:33:16.050Z,3.83
2022-11-06T12:36:05.822Z,2.72
2022-11-06T12:38:54.272Z,2.70
2022-11-06T12:41:43.286Z,2.85
2022-11-06T12:44:28.603Z,2.90
2022-11-06T12:47:39.193Z,2.80
2022-11-06T12:50:32.412Z,2.47
2022-11-06T12:53:43.132Z,2.60
2022-11-06T12:56:35.044Z,2.95
2022-11-06T12:59:35.010Z,3.58
2022-11-06T13:02:45.836Z,3.03
2022-11-06T13:05:46.781Z,3.40
2022-11-06T13:09:00.930Z,3.13
2022-11-06T13:12:03.122Z,2.70
2022-11-06T13:15:11.136Z,3.00
2022-11-06T13:18:19.850Z,3.20
2022-11-06T13:21:20.945Z,2.63
2022-11-06T13:24:17.670Z,3.33
2022-11-06T13:27:22.444Z,3.60
2022-11-06T13:30:22.453Z,3.47
2022-11-06T13:33:17.267Z,3.42
2022-11-06T13:36:03.175Z,3.23
2022-11-06T13:39:12.040Z,4.55
2022-11-06T13:41:58.825Z,2.97
2022-11-06T13:44:44.435Z,3.53
2022-11-06T13:47:41.801Z,3.80
2022-11-06T13:50:56.981Z,3.83
2022-11-06T13:53:49.893Z,3.80
2022-11-06T13:57:06.529Z,4.00
2022-11-06T14:00:23.954Z,4.00
2022-11-06T14:03:36.669Z,3.83
2022-11-06T14:06:25.075Z,3.90
2022-11-06T14:09:17.471Z,3.38
2022-11-06T14:12:15.408Z,3.40
2022-11-06T14:15:19.244Z,3.88
2022-11-06T14:18:08.209Z,3.78
2022-11-06T14:21:42.749Z,3.80
2022-11-06T14:24:28.434Z,4.15
2022-11-06T14:27:36.758Z,3.70
2022-11-06T14:30:57.801Z,3.63
2022-11-06T14:33:42.979Z,4.03
2022-11-06T14:36:34.344Z,3.83
2022-11-06T14:39:52.213Z,3.30
2022-11-06T14:42:47.885Z,3.40
2022-11-06T14:45:36.051Z,3.20
2022-11-06T14:48:34.079Z,4.80
2022-11-06T14:51:26.720Z,3.75
2022-11-06T14:54:24.575Z,3.55
2022-11-06T14:57:15.508Z,3.97
2022-11-06T15:00:01.772Z,3.45
2022-11-06T15:02:48.740Z,3.55
2022-11-06T15:05:41.981Z,4.18
2022-11-06T15:08:49.060Z,4.10
2022-11-06T15:12:03.881Z,3.80
2022-11-06T15:14:54.163Z,3.08
2022-11-06T15:17:40.886Z,3.35
2022-11-06T15:20:33.968Z,3.10
2022-11-06T15:23:44.773Z,3.80
2022-11-06T15:26:35.799Z,2.78
2022-11-06T15:29:26.106Z,3.30
2022-11-06T15:32:22.845Z,3.28
2022-11-06T15:35:21.945Z,3.60
2022-11-06T15:38:14.661Z,3.22
2022-11-06T15:40:59.934Z,3.00
2022-11-06T15:43:49.055Z,3.75
2022-11-06T15:46:35.145Z,3.25
2022-11-06T15:49:20.922Z,3.08
2022-11-06T15:52:06.633Z,3.17
2022-11-06T15:54:56.645Z,2.70
2022-11-06T15:57:43.680Z,2.80
2022-11-06T16:00:29.226Z,2.90
2022-11-06T16:03:21.073Z,2.85
2022-11-06T16:06:06.795Z,3.45
2022-11-06T16:08:52.406Z,2.92
2022-11-06T16:11:37.734Z,3.33
2022-11-06T16:14:24.032Z,3.20
2022-11-06T16:17:12.455Z,3.25
2022-11-06T16:20:01.787Z,2.90
2022-11-06T16:22:47.315Z,3.88
2022-11-06T16:25:32.764Z,2.72
2022-11-06T16:28:21.708Z,2.58
2022-11-06T16:31:20.463Z,3.03
2022-11-06T16:34:33.222Z,3.08
2022-11-06T16:37:35.701Z,3.25
2022-11-06T16:40:55.242Z,3.20
2022-11-06T16:43:41.414Z,3.30
2022-11-06T16:47:04.806Z,2.88
2022-11-06T16:49:53.907Z,3.40
2022-11-06T16:52:40.685Z,4.07
2022-11-06T16:55:28.278Z,3.60
2022-11-06T16:58:16.912Z,3.42
2022-11-06T17:01:05.851Z,4.15
2022-11-06T17:04:01.456Z,3.72
2022-11-06T17:06:51.697Z,4.65
2022-11-06T17:09:37.409Z,5.07
2022-11-06T17:12:23.237Z,4.00
2022-11-06T17:15:10.071Z,4.50
2022-11-06T17:17:55.758Z,5.13
2022-11-06T17:20:43.068Z,4.20
2022-11-06T17:23:30.074Z,4.95
2022-11-06T17:26:33.665Z,4.80
2022-11-06T17:29:22.089Z,5.40
2022-11-06T17:32:07.830Z,5.47
2022-11-06T17:34:53.384Z,6.28
2022-11-06T17:37:39.158Z,6.05
2022-11-06T17:40:28.433Z,6.03
2022-11-06T17:43:14.320Z,5.82
2022-11-06T17:46:01.586Z,5.97
2022-11-06T17:48:46.862Z,5.90
2022-11-06T17:51:53.516Z,6.22
2022-11-06T17:54:39.662Z,6.40
2022-11-06T17:57:25.302Z,5.57
2022-11-06T18:00:13.737Z,5.57
2022-11-06T18:03:01.861Z,6.50
2022-11-06T18:05:48.057Z,5.85
2022-11-06T18:08:33.293Z,5.97
2022-11-06T18:11:19.065Z,5.80
2022-11-06T18:14:06.659Z,6.45
2022-11-06T18:16:52.588Z,6.38
2022-11-06T18:19:37.998Z,5.55
2022-11-06T18:22:26.135Z,6.75
2022-11-06T18:25:11.945Z,5.82
2022-11-06T18:28:03.352Z,6.13
2022-11-06T18:30:49.425Z,6.55
2022-11-06T18:33:34.957Z,6.13
2022-11-06T18:36:23.681Z,6.25
2022-11-06T18:39:09.260Z,6.20
2022-11-06T18:41:57.953Z,6.00
2022-11-06T18:44:43.206Z,5.68
2022-11-06T18:47:28.653Z,5.93
2022-11-06T18:50:14.685Z,6.60
2022-11-06T18:53:03.230Z,7.70
2022-11-06T18:55:48.408Z,8.10
2022-11-06T18:58:35.014Z,7.15
2022-11-06T19:01:21.289Z,8.07
2022-11-06T19:04:06.938Z,8.85
2022-11-06T19:06:52.426Z,8.27
2022-11-06T19:09:41.754Z,10.82
2022-11-06T19:12:26.945Z,10.50
2022-11-06T19:15:12.415Z,10.75
2022-11-06T19:17:58.269Z,10.50
2022-11-06T19:20:43.984Z,9.43
2022-11-06T19:23:29.681Z,8.27
2022-11-06T19:26:30.417Z,9.40
2022-11-06T19:29:17.325Z,9.82
2022-11-06T19:32:02.997Z,8.93
2022-11-06T19:34:48.463Z,8.07
2022-11-06T19:37:33.856Z,9.43
2022-11-06T19:40:28.117Z,8.90
2022-11-06T19:43:13.826Z,8.93
2022-11-06T19:46:03.080Z,8.40
2022-11-06T19:48:48.718Z,7.22
2022-11-06T19:51:34.992Z,7.72
2022-11-06T19:54:20.715Z,8.25
2022-11-06T19:57:28.515Z,7.78
2022-11-06T20:00:11.688Z,7.18
2022-11-06T20:02:57.376Z,7.03
2022-11-06T20:05:42.922Z,6.20
2022-11-06T20:08:28.431Z,6.28
2022-11-06T20:11:15.016Z,6.43
2022-11-06T20:14:00.549Z,6.30
2022-11-06T20:16:46.298Z,6.68
2022-11-06T20:19:31.538Z,6.63
2022-11-06T20:22:17.146Z,5.93
2022-11-06T20:25:02.971Z,6.82
2022-11-06T20:27:51.091Z,6.20
2022-11-06T20:30:38.969Z,7.00
2022-11-06T20:33:24.420Z,6.70
2022-11-06T20:36:13.733Z,6.63
2022-11-06T20:39:00.182Z,5.38
2022-11-06T20:41:46.450Z,5.80
2022-11-06T20:44:32.045Z,6.57
2022-11-06T20:47:18.267Z,6.68
2022-11-06T20:50:04.033Z,6.57
2022-11-06T20:52:49.177Z,6.82
2022-11-06T20:55:34.831Z,6.20
2022-11-06T20:58:23.348Z,7.55
2022-11-06T21:01:20.283Z,6.38
2022-11-06T21:04:06.838Z,6.13
2022-11-06T21:06:52.335Z,7.10
2022-11-06T21:09:37.835Z,5.72
2022-11-06T21:12:23.652Z,6.50
2022-11-06T21:15:09.441Z,7.53
2022-11-06T21:17:54.791Z,6.78
2022-11-06T21:20:43.363Z,6.07
2022-11-06T21:23:28.892Z,6.10
2022-11-06T21:26:20.553Z,6.35
2022-11-06T21:29:13.466Z,5.85
2022-11-06T21:31:58.634Z,6.82
2022-11-06T21:34:44.143Z,5.82
2022-11-06T21:37:33.072Z,5.03
2022-11-06T21:40:18.981Z,5.25
2022-11-06T21:43:04.311Z,5.30
2022-11-06T21:45:49.490Z,5.07
2022-11-06T21:48:50.796Z,5.35
2022-11-06T21:51:36.726Z,5.60
2022-11-06T21:54:40.622Z,4.70
2022-11-06T21:57:25.894Z,5.40
2022-11-06T22:00:14.395Z,5.40
2022-11-06T22:03:00.354Z,5.47
2022-11-06T22:05:45.955Z,5.22
2022-11-06T22:08:34.395Z,6.10
2022-11-06T22:11:19.535Z,5.78
2022-11-06T22:14:11.497Z,5.45
2022-11-06T22:16:57.042Z,4.97
2022-11-06T22:19:42.671Z,5.28
2022-11-06T22:22:27.887Z,6.25
2022-11-06T22:25:16.372Z,4.43
2022-11-06T22:28:05.045Z,5.80
2022-11-06T22:30:50.593Z,5.10
2022-11-06T22:33:37.036Z,4.82
2022-11-06T22:36:23.150Z,5.28
2022-11-06T22:39:10.538Z,4.60
2022-11-06T22:41:56.300Z,4.70
2022-11-06T22:44:41.559Z,4.28
2022-11-06T22:47:27.079Z,5.03
2022-11-06T22:50:12.599Z,4.82
2022-11-06T22:52:58.026Z,4.53
2022-11-06T22:55:46.805Z,5.15
2022-11-06T22:58:33.529Z,4.15
2022-11-06T23:01:21.945Z,4.18
2022-11-06T23:04:09.654Z,4.45
2022-11-06T23:06:55.139Z,4.40
2022-11-06T23:09:40.558Z,4.25
2022-11-06T23:12:25.849Z,4.10
2022-11-06T23:15:11.295Z,4.30
2022-11-06T23:17:57.177Z,3.70
2022-11-06T23:20:45.643Z,4.18
2022-11-06T23:23:31.114Z,4.13
2022-11-06T23:26:18.987Z,3.67
2022-11-06T23:29:04.510Z,3.88
2022-11-06T23:31:50.175Z,4.32
2022-11-06T23:34:36.063Z,3.25
2022-11-06T23:37:24.488Z,3.08
2022-11-06T23:40:11.886Z,3.42
2022-11-06T23:42:57.998Z,3.28
2022-11-06T23:45:49.289Z,3.08
2022-11-06T23:48:34.382Z,3.20
2022-11-06T23:51:20.643Z,3.83
2022-11-06T23:54:13.199Z,3.53
2022-11-06T23:56:58.966Z,3.25
2022-11-06T23:59:44.252Z,3.47
